Time;durP1;ratioP1;P1;durP2;ratioP2;P2;SDS_P1;SDS_P2;PMS_P1;PMS_P2;Temp;Humidity;BMP_temperature;BMP_pressure;BME280_temperature;BME280_humidity;BME280_pressure;Samples;Min_cycle;Max_cycle;Signal;HPM_P1;HPM_P2
2021/08/11 00:00:08;;;;;;;3.80;3.37;;;;;;;22.40;98.02;97772.69;4989741;28;20238;-64
2021/08/11 00:02:35;;;;;;;4.37;3.20;;;;;;;22.41;97.96;97772.75;5007484;28;20237;-63
2021/08/11 00:05:02;;;;;;;4.00;3.60;;;;;;;22.41;98.13;97775.28;5013770;28;20578;-66
2021/08/11 00:07:29;;;;;;;4.63;3.53;;;;;;;22.24;97.50;97734.66;5009338;28;20318;-65
2021/08/11 00:09:55;;;;;;;3.50;3.20;;;;;;;22.43;98.11;97775.34;5006971;28;20261;-66
2021/08/11 00:12:22;;;;;;;3.50;3.13;;;;;;;22.38;97.69;97770.09;5006387;28;20289;-66
2021/08/11 00:14:48;;;;;;;3.93;3.37;;;;;;;22.42;97.94;97777.06;5007999;28;20235;-65
2021/08/11 00:17:15;;;;;;;4.20;3.80;;;;;;;22.39;97.96;97773.53;5005782;28;20234;-64
2021/08/11 00:19:42;;;;;;;3.43;3.13;;;;;;;22.42;97.46;97774.50;5011741;28;20292;-66
2021/08/11 00:22:08;;;;;;;4.27;3.50;;;;;;;22.27;97.96;97753.56;5004716;28;20300;-65
2021/08/11 00:24:35;;;;;;;4.40;3.40;;;;;;;22.43;97.92;97781.34;5008995;28;20750;-64
2021/08/11 00:27:02;;;;;;;3.33;3.03;;;;;;;22.09;97.87;97721.41;5005682;28;20279;-66
2021/08/11 00:29:28;;;;;;;4.27;3.27;;;;;;;22.43;97.80;97781.34;4993907;28;20318;-66
2021/08/11 00:31:55;;;;;;;3.83;3.30;;;;;;;22.43;97.83;97776.22;5006318;28;20663;-66
2021/08/11 00:34:21;;;;;;;3.47;3.17;;;;;;;22.44;98.15;97777.09;5008904;28;20230;-66
2021/08/11 00:36:48;;;;;;;3.70;3.40;;;;;;;22.44;97.86;97777.09;5006043;28;20203;-66
2021/08/11 00:39:15;;;;;;;3.37;3.00;;;;;;;22.30;97.79;97755.34;5006014;28;20733;-66
2021/08/11 00:41:44;;;;;;;4.10;3.23;;;;;;;22.16;97.98;97729.31;5007859;28;20739;-66
2021/08/11 00:44:11;;;;;;;3.60;3.23;;;;;;;22.41;97.83;97775.28;5000177;28;20320;-68
2021/08/11 00:46:42;;;;;;;3.47;3.17;;;;;;;22.44;97.75;97771.97;5010547;28;20312;-66
2021/08/11 00:49:15;;;;;;;4.10;3.37;;;;;;;22.41;97.87;97769.34;5002825;28;20702;-66
2021/08/11 00:51:41;;;;;;;3.53;3.23;;;;;;;22.44;97.86;97775.38;5013142;28;20252;-66
2021/08/11 00:54:08;;;;;;;4.30;3.37;;;;;;;22.37;97.97;97763.25;5001039;28;20318;-65
2021/08/11 00:56:36;;;;;;;4.00;3.30;;;;;;;22.32;97.89;97754.53;4992564;28;20252;-65
2021/08/11 00:59:03;;;;;;;3.43;3.13;;;;;;;22.36;97.72;97760.63;5004393;28;20228;-66
2021/08/11 01:01:33;;;;;;;4.20;3.00;;;;;;;22.44;97.90;97774.53;4998198;28;20650;-66
2021/08/11 01:04:00;;;;;;;4.03;3.50;;;;;;;22.38;97.79;97769.25;4984800;28;20198;-66
2021/08/11 01:06:27;;;;;;;4.00;3.30;;;;;;;22.33;97.95;97765.66;4991907;28;20242;-66
2021/08/11 01:08:55;;;;;;;3.97;3.20;;;;;;;22.22;97.85;97752.53;5014000;28;20320;-65
2021/08/11 01:11:22;;;;;;;3.40;3.03;;;;;;;22.36;98.05;97784.56;5002460;28;20230;-67
2021/08/11 01:13:48;;;;;;;3.67;3.23;;;;;;;22.23;98.21;97756.81;5011990;28;20229;-66
2021/08/11 01:16:15;;;;;;;3.40;3.10;;;;;;;22.26;98.38;97766.31;4989094;28;20238;-67
2021/08/11 01:18:42;;;;;;;3.83;3.43;;;;;;;22.26;98.56;97774.00;5015049;28;20683;-66
2021/08/11 01:21:44;;;;;;;3.70;3.40;;;;;;;22.33;98.54;97788.72;5012225;28;20229;-64
2021/08/11 01:24:27;;;;;;;3.60;3.30;;;;;;;22.34;98.51;97800.69;5012396;28;20220;-67
2021/08/11 01:27:17;;;;;;;3.47;3.00;;;;;;;22.34;98.68;97793.88;5013983;28;20284;-65
2021/08/11 01:30:05;;;;;;;3.50;3.20;;;;;;;22.35;98.54;97789.63;5016258;28;20268;-66
2021/08/11 01:32:51;;;;;;;6.77;3.17;;;;;;;22.35;98.56;97794.75;5017829;28;20237;-65
2021/08/11 01:35:19;;;;;;;3.07;2.77;;;;;;;22.21;98.48;97767.84;5013720;28;20201;-66
2021/08/11 01:37:49;;;;;;;3.57;3.27;;;;;;;22.35;98.39;97792.19;5001098;28;20764;-66
2021/08/11 01:40:18;;;;;;;3.73;3.43;;;;;;;22.17;98.54;97760.91;5002778;28;20286;-65
2021/08/11 01:42:44;;;;;;;3.80;3.40;;;;;;;22.25;98.14;97778.22;5001784;28;20290;-66
2021/08/11 01:45:34;;;;;;;3.43;3.10;;;;;;;22.36;98.42;97789.69;5005112;28;20610;-66
2021/08/11 01:48:11;;;;;;;4.23;2.93;;;;;;;22.29;98.58;97782.63;5006811;28;20233;-66
2021/08/11 01:50:39;;;;;;;3.57;3.27;;;;;;;22.30;98.41;97783.50;5023359;28;20261;-66
2021/08/11 01:53:06;;;;;;;3.40;3.10;;;;;;;22.38;98.54;97794.84;5016212;28;20233;-66
2021/08/11 01:55:33;;;;;;;3.30;3.00;;;;;;;22.30;98.41;97788.63;5002410;28;20473;-66
2021/08/11 01:58:00;;;;;;;3.43;3.10;;;;;;;22.34;98.31;97788.75;4990915;28;20233;-67
2021/08/11 02:00:27;;;;;;;5.30;3.50;;;;;;;22.15;98.42;97758.31;5013813;28;20230;-66
2021/08/11 02:02:53;;;;;;;3.03;2.63;;;;;;;22.36;98.42;97792.25;5018346;28;20209;-66
2021/08/11 02:05:22;;;;;;;4.53;3.33;;;;;;;22.12;98.36;97747.09;4995787;28;20238;-67
2021/08/11 02:07:49;;;;;;;3.40;3.10;;;;;;;22.40;98.86;97790.63;5012534;28;20658;-63
2021/08/11 02:10:16;;;;;;;3.80;3.40;;;;;;;22.16;98.24;97746.34;5014632;28;20257;-66
2021/08/11 02:12:43;;;;;;;3.53;3.23;;;;;;;22.32;98.25;97777.59;5012737;28;20984;-66
2021/08/11 02:15:10;;;;;;;3.63;3.13;;;;;;;22.41;98.31;97788.09;5005289;28;20237;-67
2021/08/11 02:17:40;;;;;;;3.17;2.87;;;;;;;22.17;98.14;97746.41;5014898;28;20227;-66
2021/08/11 02:20:10;;;;;;;3.40;2.93;;;;;;;22.42;98.10;97788.97;4998845;28;20198;-66
2021/08/11 02:22:36;;;;;;;3.60;3.30;;;;;;;22.27;98.17;97766.34;5011170;28;20209;-64
2021/08/11 02:25:08;;;;;;;3.40;3.10;;;;;;;22.43;98.13;97793.28;5013466;28;20240;-64
2021/08/11 02:27:51;;;;;;;3.23;2.93;;;;;;;22.42;98.20;97791.53;5007687;28;20255;-66
2021/08/11 02:30:24;;;;;;;3.90;3.37;;;;;;;22.42;98.19;97789.88;5013315;28;20321;-65
2021/08/11 02:32:52;;;;;;;3.43;3.13;;;;;;;22.42;98.08;97789.88;5016278;28;20637;-65
2021/08/11 02:35:26;;;;;;;3.37;2.90;;;;;;;22.42;98.22;97781.31;5011479;28;20248;-65
2021/08/11 02:38:03;;;;;;;3.60;3.30;;;;;;;22.42;98.23;97777.06;5015123;28;20778;-64
2021/08/11 02:40:55;;;;;;;3.73;3.17;;;;;;;22.26;98.21;97756.91;5013980;28;20229;-64
2021/08/11 02:43:49;;;;;;;3.47;3.03;;;;;;;22.40;98.16;97780.38;5010435;28;20203;-66
2021/08/11 02:46:17;;;;;;;3.43;3.13;;;;;;;22.39;98.29;97791.44;5008751;28;20289;-62
2021/08/11 02:49:05;;;;;;;3.93;2.87;;;;;;;22.32;98.47;97781.88;5130676;22;20211;-62
2021/08/11 02:51:33;;;;;;;3.40;3.10;;;;;;;22.35;98.42;97787.06;4999645;28;20660;-61
2021/08/11 02:54:02;;;;;;;4.10;3.70;;;;;;;22.34;98.51;97787.88;4987119;28;20233;-61
2021/08/11 02:56:30;;;;;;;2.93;2.73;;;;;;;22.30;98.74;97781.81;5022820;28;20221;-60
2021/08/11 02:58:57;;;;;;;3.67;3.27;;;;;;;22.30;98.81;97780.94;5020586;28;20706;-60
2021/08/11 03:01:26;;;;;;;3.43;3.10;;;;;;;22.32;98.92;97789.53;5017982;28;20237;-61
2021/08/11 03:03:52;;;;;;;3.30;3.00;;;;;;;22.32;98.58;97792.94;5000065;28;20215;-61
2021/08/11 03:06:19;;;;;;;3.57;3.27;;;;;;;22.32;99.06;97789.53;5021401;28;20201;-61
2021/08/11 03:08:45;;;;;;;3.40;3.07;;;;;;;22.24;99.01;97781.63;5021319;28;20261;-61
2021/08/11 03:11:12;;;;;;;3.43;3.13;;;;;;;22.28;98.84;97787.69;5017055;28;20240;-60
2021/08/11 03:13:42;;;;;;;3.63;3.33;;;;;;;22.26;98.61;97777.41;5002385;28;20202;-61
2021/08/11 03:16:12;;;;;;;2.97;2.73;;;;;;;22.34;98.77;97793.00;5016387;28;20241;-60
2021/08/11 03:18:39;;;;;;;3.50;3.20;;;;;;;22.33;98.77;97788.72;5020091;28;20222;-61
2021/08/11 03:21:05;;;;;;;3.13;2.83;;;;;;;22.36;98.71;97796.47;5019564;28;20735;-60
2021/08/11 03:23:32;;;;;;;2.97;2.73;;;;;;;22.36;98.85;97791.38;5020027;28;20234;-60
2021/08/11 03:25:59;;;;;;;6.17;3.10;;;;;;;22.33;98.94;97787.03;5022198;28;20533;-61
2021/08/11 03:28:25;;;;;;;3.47;3.17;;;;;;;22.37;98.55;97788.84;5015820;28;20256;-61
2021/08/11 03:30:52;;;;;;;3.37;3.03;;;;;;;22.39;98.63;97783.78;5017850;28;20603;-60
2021/08/11 03:33:19;;;;;;;3.50;3.20;;;;;;;22.39;98.58;97788.91;5014105;28;20211;-61
2021/08/11 03:35:45;;;;;;;3.60;3.30;;;;;;;22.39;98.49;97789.78;5024241;28;20252;-58
2021/08/11 03:38:12;;;;;;;4.30;3.70;;;;;;;22.40;99.01;97793.19;5017301;28;20264;-61
2021/08/11 03:40:38;;;;;;;4.27;3.70;;;;;;;22.34;99.00;97781.06;5022463;28;20245;-60
2021/08/11 03:43:05;;;;;;;6.27;4.33;;;;;;;22.39;98.99;97788.91;5020407;28;20405;-61
2021/08/11 03:45:31;;;;;;;4.90;4.00;;;;;;;22.39;99.02;97781.22;5022038;28;20290;-60
2021/08/11 03:47:58;;;;;;;4.63;4.07;;;;;;;22.41;98.89;97793.22;5016244;28;20206;-61
2021/08/11 03:50:28;;;;;;;5.73;4.20;;;;;;;22.40;99.18;97796.63;5017997;28;20771;-61
2021/08/11 03:52:55;;;;;;;6.47;4.00;;;;;;;22.41;99.49;97798.34;5012782;28;20676;-61
2021/08/11 03:55:21;;;;;;;5.30;4.17;;;;;;;22.36;98.89;97787.13;5011975;28;20249;-61
2021/08/11 03:57:48;;;;;;;5.43;4.03;;;;;;;22.36;98.88;97791.38;5009974;28;20332;-62
2021/08/11 04:00:15;;;;;;;6.07;4.03;;;;;;;22.41;98.74;97797.50;5011645;28;20246;-61
2021/08/11 04:02:41;;;;;;;6.07;4.10;;;;;;;22.35;98.77;97790.47;5012651;28;20234;-61
2021/08/11 04:05:08;;;;;;;5.63;3.70;;;;;;;22.41;98.74;97800.06;5012186;28;20207;-61
2021/08/11 04:07:37;;;;;;;5.37;3.57;;;;;;;22.39;98.75;97799.13;5011190;28;20230;-61
2021/08/11 04:10:08;;;;;;;5.73;3.63;;;;;;;22.40;98.75;97799.19;5011232;28;20722;-60
2021/08/11 04:12:35;;;;;;;3.93;3.53;;;;;;;22.38;98.66;97798.25;5011242;28;20297;-60
2021/08/11 04:15:01;;;;;;;4.00;3.60;;;;;;;22.40;98.68;97803.41;5009177;28;20233;-61
2021/08/11 04:17:28;;;;;;;3.83;3.40;;;;;;;22.38;98.54;97805.09;5011085;28;20209;-62
2021/08/11 04:19:55;;;;;;;4.10;3.40;;;;;;;22.40;98.58;97812.00;5011157;28;20265;-60
2021/08/11 04:22:21;;;;;;;6.33;3.30;;;;;;;22.40;98.71;97818.78;5011407;28;20244;-61
2021/08/11 04:24:48;;;;;;;5.70;3.63;;;;;;;22.37;98.63;97811.00;5006736;28;20214;-59
2021/08/11 04:27:15;;;;;;;5.40;3.63;;;;;;;22.38;98.62;97821.31;4997262;28;20248;-61
2021/08/11 04:29:41;;;;;;;12.30;3.87;;;;;;;22.36;98.62;97817.84;4988425;28;20231;-61
2021/08/11 04:32:08;;;;;;;7.57;3.53;;;;;;;22.35;98.80;97821.22;4996002;28;20210;-60
2021/08/11 04:34:34;;;;;;;5.60;3.77;;;;;;;22.34;98.50;97816.03;5014666;28;20271;-61
2021/08/11 04:37:01;;;;;;;4.23;3.30;;;;;;;22.30;98.81;97819.34;5014708;28;20237;-61
2021/08/11 04:39:28;;;;;;;3.87;3.40;;;;;;;22.31;98.99;97821.06;4997091;28;20246;-61
2021/08/11 04:41:54;;;;;;;3.57;3.27;;;;;;;22.24;99.00;97812.34;5012318;28;20288;-61
2021/08/11 04:44:21;;;;;;;4.00;3.40;;;;;;;22.25;99.22;97816.63;5015243;28;20707;-61
2021/08/11 04:46:48;;;;;;;4.30;3.60;;;;;;;22.30;99.43;97821.91;5017575;28;20637;-62
2021/08/11 04:49:14;;;;;;;3.70;3.40;;;;;;;22.30;99.17;97819.34;5015969;28;20247;-63
2021/08/11 04:51:41;;;;;;;3.80;3.50;;;;;;;22.31;99.29;97816.81;5017612;28;20287;-59
2021/08/11 04:54:07;;;;;;;4.03;3.50;;;;;;;22.32;99.17;97810.03;5018451;28;20241;-61
2021/08/11 04:56:34;;;;;;;4.17;3.73;;;;;;;22.32;99.14;97821.13;5017685;28;20550;-59
2021/08/11 04:59:00;;;;;;;4.70;3.50;;;;;;;22.34;99.23;97816.94;5017057;28;20347;-61
2021/08/11 05:01:27;;;;;;;3.57;3.27;;;;;;;22.30;99.18;97811.66;5019606;28;20680;-61
2021/08/11 05:03:54;;;;;;;6.83;3.60;;;;;;;22.35;98.77;97821.22;5015844;28;20198;-60
2021/08/11 05:06:21;;;;;;;3.83;3.40;;;;;;;22.34;99.29;97816.03;5018444;28;20237;-61
2021/08/11 05:08:48;;;;;;;3.93;3.30;;;;;;;22.36;98.75;97817.84;5017449;28;20276;-61
2021/08/11 05:11:15;;;;;;;3.63;3.33;;;;;;;22.37;98.90;97827.25;5019928;28;20260;-60
2021/08/11 05:13:43;;;;;;;5.67;3.50;;;;;;;22.39;98.83;97822.19;5017370;28;20202;-61
2021/08/11 05:16:09;;;;;;;4.23;3.20;;;;;;;22.36;98.81;97819.53;5017982;28;20229;-63
2021/08/11 05:18:36;;;;;;;6.23;3.70;;;;;;;22.39;98.34;97823.06;5015261;28;20201;-59
2021/08/11 05:21:03;;;;;;;3.80;3.37;;;;;;;22.39;98.29;97824.75;5017725;28;20305;-61
2021/08/11 05:23:29;;;;;;;4.27;3.67;;;;;;;22.40;98.09;97827.34;5019785;28;20691;-61
2021/08/11 05:25:56;;;;;;;4.03;3.63;;;;;;;22.40;98.69;97829.91;5018943;28;20284;-61
2021/08/11 05:28:22;;;;;;;3.60;3.30;;;;;;;22.41;98.95;97828.22;5020303;28;20245;-62
2021/08/11 05:30:49;;;;;;;3.70;3.40;;;;;;;22.41;98.79;97829.06;5016177;28;20229;-60
2021/08/11 05:33:16;;;;;;;3.77;3.47;;;;;;;22.42;98.69;97835.09;5017428;28;20206;-61
2021/08/11 05:35:42;;;;;;;3.57;3.27;;;;;;;22.42;98.44;97830.84;5018204;28;20293;-61
2021/08/11 05:38:10;;;;;;;3.60;3.30;;;;;;;22.29;98.65;97797.13;5017285;28;20694;-61
2021/08/11 05:40:37;;;;;;;4.10;3.60;;;;;;;22.42;98.53;97824.84;4998049;28;20256;-61
2021/08/11 05:43:03;;;;;;;3.90;3.30;;;;;;;22.44;98.44;97823.22;5017294;28;20634;-61
2021/08/11 05:45:30;;;;;;;3.37;2.80;;;;;;;22.41;99.07;97820.56;5020250;28;20245;-61
2021/08/11 05:47:57;;;;;;;4.07;3.73;;;;;;;22.44;98.00;97823.22;5015479;28;20202;-61
2021/08/11 05:50:24;;;;;;;4.90;3.60;;;;;;;22.43;98.46;97827.44;5017298;28;20264;-61
2021/08/11 05:52:50;;;;;;;3.70;3.40;;;;;;;22.43;98.47;97829.13;5016854;28;20259;-60
2021/08/11 05:55:18;;;;;;;3.67;3.37;;;;;;;22.44;98.49;97826.63;5018595;28;20671;-61
2021/08/11 05:57:44;;;;;;;3.27;3.07;;;;;;;22.42;98.23;97825.72;5019716;28;20225;-61
2021/08/11 06:00:11;;;;;;;4.00;3.33;;;;;;;22.44;98.32;97831.72;5017199;28;20255;-61
2021/08/11 06:02:39;;;;;;;3.60;3.30;;;;;;;22.44;98.42;97831.72;5017801;28;20205;-61
2021/08/11 06:05:10;;;;;;;3.83;3.23;;;;;;;22.45;98.40;97828.38;5018004;28;20216;-61
2021/08/11 06:07:37;;;;;;;3.50;3.20;;;;;;;22.40;98.27;97824.78;5015771;28;20281;-61
2021/08/11 06:10:04;;;;;;;3.63;3.33;;;;;;;22.41;98.37;97829.06;5018923;28;20471;-60
2021/08/11 06:12:30;;;;;;;3.43;3.13;;;;;;;22.43;98.06;97836.81;5018218;28;20221;-61
2021/08/11 06:14:57;;;;;;;3.70;3.40;;;;;;;22.41;98.49;97831.66;5015126;28;20244;-61
2021/08/11 06:17:24;;;;;;;3.83;3.43;;;;;;;22.40;98.49;97824.78;5019170;28;20198;-61
2021/08/11 06:19:50;;;;;;;3.73;3.33;;;;;;;22.39;98.23;97829.88;5015494;28;20265;-60
2021/08/11 06:22:17;;;;;;;3.57;3.27;;;;;;;22.37;98.71;97823.81;5022967;28;20296;-61
2021/08/11 06:24:44;;;;;;;3.70;3.40;;;;;;;22.36;98.73;97824.66;5020816;28;20237;-62
2021/08/11 06:27:10;;;;;;;5.03;3.33;;;;;;;22.34;98.83;97822.03;5025509;28;20308;-60
2021/08/11 06:29:37;;;;;;;3.40;3.10;;;;;;;22.36;98.89;97829.78;5020173;28;20283;-60
2021/08/11 06:32:05;;;;;;;3.80;3.40;;;;;;;22.35;98.81;97828.91;5018192;28;20254;-61
2021/08/11 06:34:31;;;;;;;4.20;3.57;;;;;;;22.32;98.87;97821.13;5024249;28;20205;-61
2021/08/11 06:36:58;;;;;;;3.67;3.33;;;;;;;22.37;99.02;97826.38;5016369;28;20294;-60
2021/08/11 06:39:25;;;;;;;3.60;3.30;;;;;;;22.36;98.82;97827.22;5024201;28;20310;-61
2021/08/11 06:41:51;;;;;;;3.60;3.30;;;;;;;22.39;98.91;97829.88;5019056;28;20712;-61
2021/08/11 06:44:18;;;;;;;3.40;3.10;;;;;;;22.39;98.78;97828.19;5025505;28;20279;-62
2021/08/11 06:46:45;;;;;;;3.33;3.03;;;;;;;22.39;99.00;97828.19;5020499;28;20228;-59
2021/08/11 06:49:11;;;;;;;4.10;3.77;;;;;;;22.41;99.18;97828.22;5017994;28;20308;-61
2021/08/11 06:51:38;;;;;;;3.20;3.00;;;;;;;22.41;98.84;97826.53;5023563;28;20263;-61
2021/08/11 06:54:09;;;;;;;3.70;3.33;;;;;;;22.42;98.78;97835.09;5000218;28;20276;-60
2021/08/11 06:56:36;;;;;;;3.37;3.07;;;;;;;22.41;98.64;97836.75;5021064;28;20695;-62
2021/08/11 06:59:03;;;;;;;4.30;3.13;;;;;;;22.40;98.75;97839.28;5018541;28;20283;-60
2021/08/11 07:01:29;;;;;;;4.37;3.50;;;;;;;22.42;98.51;97838.53;5020143;28;20194;-61
2021/08/11 07:03:56;;;;;;;3.60;3.10;;;;;;;22.43;98.67;97844.50;5019059;28;20201;-61
2021/08/11 07:06:23;;;;;;;4.57;3.40;;;;;;;22.44;98.59;97843.69;5022158;28;20676;-61
2021/08/11 07:08:50;;;;;;;3.37;3.07;;;;;;;22.44;98.40;97846.25;5020070;28;20222;-62
2021/08/11 07:11:16;;;;;;;3.37;3.07;;;;;;;22.44;98.43;97854.78;5023419;28;20250;-61
2021/08/11 07:13:43;;;;;;;5.30;3.30;;;;;;;22.44;98.52;97848.81;5018171;28;20251;-61
2021/08/11 07:16:09;;;;;;;3.87;3.57;;;;;;;22.44;98.50;97846.25;5014156;28;20294;-60
2021/08/11 07:18:36;;;;;;;3.50;3.20;;;;;;;22.45;98.36;97848.88;5018764;28;20206;-62
2021/08/11 07:21:03;;;;;;;3.50;2.90;;;;;;;22.45;98.45;97851.44;5019827;28;20813;-61
2021/08/11 07:23:29;;;;;;;3.37;3.10;;;;;;;22.46;98.37;97852.28;5024577;28;20288;-61
2021/08/11 07:25:56;;;;;;;3.30;3.00;;;;;;;22.45;98.36;97845.41;5016694;28;20281;-61
2021/08/11 07:28:22;;;;;;;3.40;3.10;;;;;;;22.41;98.21;97841.88;5020774;28;20743;-62
2021/08/11 07:30:49;;;;;;;3.10;2.90;;;;;;;22.44;98.36;97841.13;5019444;28;20312;-61
2021/08/11 07:33:16;;;;;;;3.70;3.40;;;;;;;22.47;98.35;97843.78;5020365;28;20314;-61
2021/08/11 07:35:43;;;;;;;3.57;3.23;;;;;;;22.46;98.33;97836.91;5020851;28;20763;-60
2021/08/11 07:38:09;;;;;;;3.20;2.90;;;;;;;22.47;98.12;97843.78;5018242;28;20234;-62
2021/08/11 07:40:36;;;;;;;3.57;3.00;;;;;;;22.47;98.37;97841.22;5018400;28;20306;-61
2021/08/11 07:43:04;;;;;;;4.00;3.10;;;;;;;22.47;98.39;97844.63;5020425;28;20242;-61
2021/08/11 07:45:31;;;;;;;3.50;3.20;;;;;;;22.40;98.33;97829.03;5019298;28;20548;-61
2021/08/11 07:47:58;;;;;;;3.37;3.07;;;;;;;22.48;98.28;97842.94;5016075;28;20210;-61
2021/08/11 07:50:29;;;;;;;3.50;3.20;;;;;;;22.42;98.25;97840.22;5017235;28;20321;-61
2021/08/11 07:52:56;;;;;;;3.57;3.17;;;;;;;22.45;98.13;97845.41;5021902;28;20729;-62
2021/08/11 07:55:23;;;;;;;3.90;3.50;;;;;;;22.40;98.28;97835.03;5021459;28;20234;-61
2021/08/11 07:57:49;;;;;;;3.40;3.10;;;;;;;22.41;98.55;97841.88;5013440;28;20242;-60
2021/08/11 08:00:16;;;;;;;4.80;3.23;;;;;;;22.42;98.38;97845.31;5019963;28;20257;-61
2021/08/11 08:02:43;;;;;;;6.37;3.30;;;;;;;21.87;98.58;97753.13;5018834;28;20466;-61
2021/08/11 08:05:11;;;;;;;4.67;3.00;;;;;;;22.23;98.52;97825.94;5019668;28;20296;-61
2021/08/11 08:07:38;;;;;;;4.07;3.50;;;;;;;22.33;98.72;97837.34;5010924;28;20738;-61
2021/08/11 08:10:05;;;;;;;3.70;3.40;;;;;;;22.38;98.71;97846.91;5018713;28;20271;-60
2021/08/11 08:12:38;;;;;;;3.27;2.97;;;;;;;22.35;98.91;97844.25;5014637;28;20204;-62
2021/08/11 08:15:05;;;;;;;3.30;3.10;;;;;;;22.24;98.66;97831.94;5019151;28;20284;-61
2021/08/11 08:17:32;;;;;;;3.10;2.90;;;;;;;22.39;98.96;97848.69;5017801;28;20233;-61
2021/08/11 08:20:12;;;;;;;3.03;2.83;;;;;;;22.38;99.02;97846.91;5015665;28;20244;-61
2021/08/11 08:22:39;;;;;;;3.47;3.17;;;;;;;22.40;98.84;97846.97;5018454;28;20639;-60
2021/08/11 08:25:06;;;;;;;3.20;2.90;;;;;;;22.40;98.71;97852.97;5019388;28;20263;-61
2021/08/11 08:27:33;;;;;;;3.20;2.90;;;;;;;22.39;98.84;97846.13;5019609;28;20657;-61
2021/08/11 08:30:00;;;;;;;4.13;3.20;;;;;;;22.42;98.57;97842.75;5017083;28;20271;-60
2021/08/11 08:32:27;;;;;;;3.00;2.80;;;;;;;22.42;98.79;97841.09;5020492;28;20533;-58
2021/08/11 08:34:54;;;;;;;3.20;2.90;;;;;;;22.42;98.70;97838.53;5018519;28;20238;-61
2021/08/11 08:37:38;;;;;;;2.90;2.70;;;;;;;22.43;98.71;97839.38;5019218;28;20284;-60
2021/08/11 08:40:09;;;;;;;3.20;2.90;;;;;;;22.45;98.61;97845.41;5013959;28;20254;-61
2021/08/11 08:42:38;;;;;;;3.77;3.03;;;;;;;22.43;98.56;97837.69;5017580;28;20289;-61
2021/08/11 08:45:05;;;;;;;3.20;3.00;;;;;;;22.44;98.52;97841.97;5021889;28;20742;-61
2021/08/11 08:47:32;;;;;;;3.07;2.87;;;;;;;22.44;98.53;97844.53;5018426;28;20237;-60
2021/08/11 08:50:03;;;;;;;3.40;3.13;;;;;;;22.45;98.49;97837.75;5015779;22;20337;-62
2021/08/11 08:52:30;;;;;;;2.80;2.60;;;;;;;22.46;98.51;97842.91;4987827;28;20306;-65
2021/08/11 08:54:57;;;;;;;3.30;3.00;;;;;;;22.44;98.66;97841.97;4996311;28;20245;-62
2021/08/11 08:57:23;;;;;;;3.30;3.03;;;;;;;22.44;98.54;97841.13;5004466;28;20238;-61
2021/08/11 08:59:50;;;;;;;3.00;2.70;;;;;;;22.46;98.56;97845.47;5001633;28;20237;-63
2021/08/11 09:02:17;;;;;;;2.93;2.73;;;;;;;22.47;98.36;97843.78;4986250;28;20241;-65
2021/08/11 09:04:44;;;;;;;3.10;2.90;;;;;;;22.47;98.44;97847.19;5003924;28;20247;-64
2021/08/11 09:07:17;;;;;;;3.33;3.03;;;;;;;22.47;98.44;97848.91;4993039;28;20241;-61
2021/08/11 09:09:44;;;;;;;3.00;2.80;;;;;;;22.45;98.39;97843.75;4995587;28;20206;-61
2021/08/11 09:12:13;;;;;;;2.77;2.57;;;;;;;22.48;98.49;97843.84;4994815;28;20659;-67
2021/08/11 09:14:44;;;;;;;3.10;2.90;;;;;;;22.46;98.39;97840.34;5002184;28;20318;-64
2021/08/11 09:17:34;;;;;;;5.60;3.10;;;;;;;22.48;98.33;97835.28;4996318;28;20199;-63
2021/08/11 09:20:05;;;;;;;3.37;3.07;;;;;;;22.48;98.40;97845.50;4995556;28;20264;-61
2021/08/11 09:22:50;;;;;;;3.00;2.80;;;;;;;22.49;98.36;97839.56;4998625;28;20289;-61
2021/08/11 09:25:18;;;;;;;2.80;2.60;;;;;;;22.43;98.31;97824.88;4983483;28;20285;-66
2021/08/11 09:27:45;;;;;;;2.93;2.73;;;;;;;22.48;98.36;97830.16;4999211;28;20205;-63
2021/08/11 09:30:17;;;;;;;3.00;2.80;;;;;;;22.44;98.36;97831.72;4993973;28;20628;-63
2021/08/11 09:32:54;;;;;;;2.90;2.70;;;;;;;22.48;98.25;97828.47;4999599;28;20253;-61
2021/08/11 09:35:22;;;;;;;3.53;2.90;;;;;;;22.46;98.32;97824.97;4996321;28;20198;-63
2021/08/11 09:37:49;;;;;;;2.87;2.67;;;;;;;22.45;98.22;97825.81;5001872;28;20613;-60
2021/08/11 09:40:21;;;;;;;3.03;2.83;;;;;;;22.43;98.26;97827.44;4995412;28;20253;-62
2021/08/11 09:42:48;;;;;;;3.53;3.23;;;;;;;22.40;98.51;97824.78;4996655;28;20245;-66
2021/08/11 09:45:15;;;;;;;3.20;2.90;;;;;;;21.84;98.23;97724.91;4999864;28;20214;-63
2021/08/11 09:47:56;;;;;;;3.17;2.97;;;;;;;22.24;98.57;97793.56;4995625;28;20285;-66
2021/08/11 09:51:01;;;;;;;2.93;2.73;;;;;;;22.40;98.83;97821.34;4998171;28;20234;-62
2021/08/11 09:53:28;;;;;;;3.00;2.70;;;;;;;22.40;98.77;97823.91;4995098;28;20210;-63
2021/08/11 09:56:11;;;;;;;2.87;2.67;;;;;;;22.39;98.98;97828.19;4999880;28;20199;-61
2021/08/11 09:58:39;;;;;;;3.30;2.80;;;;;;;22.40;98.83;97829.03;4994186;28;20249;-63
2021/08/11 10:01:07;;;;;;;3.03;2.80;;;;;;;22.41;98.91;97828.22;4996977;28;20504;-62
2021/08/11 10:03:34;;;;;;;2.97;2.77;;;;;;;22.40;98.94;97837.59;4996306;28;20202;-64
2021/08/11 10:06:01;;;;;;;3.00;2.80;;;;;;;22.42;98.92;97833.41;4998008;28;20202;-63
2021/08/11 10:08:33;;;;;;;4.23;3.10;;;;;;;22.37;98.93;97831.50;4995515;28;20229;-62
2021/08/11 10:10:59;;;;;;;3.07;2.63;;;;;;;22.22;98.89;97790.94;4993625;28;20308;-64
2021/08/11 10:13:27;;;;;;;2.83;2.60;;;;;;;22.43;98.88;97834.25;4999769;28;20243;-61
2021/08/11 10:15:54;;;;;;;2.80;2.50;;;;;;;22.39;98.92;97822.19;4996049;28;20293;-63
2021/08/11 10:18:25;;;;;;;2.80;2.60;;;;;;;22.41;98.68;97823.13;4983872;28;20206;-63
2021/08/11 10:20:55;;;;;;;2.83;2.63;;;;;;;22.46;98.64;97834.34;4996001;28;20280;-66
2021/08/11 10:23:21;;;;;;;2.67;2.47;;;;;;;22.45;99.02;97830.94;5001166;28;20242;-61
2021/08/11 10:25:48;;;;;;;2.80;2.53;;;;;;;22.46;98.65;97837.78;5000179;28;20651;-64
2021/08/11 10:28:20;;;;;;;2.90;2.70;;;;;;;22.44;98.59;97826.63;4991533;28;20294;-62
2021/08/11 10:30:47;;;;;;;2.90;2.70;;;;;;;22.47;98.51;97825.84;4998706;28;20225;-63
2021/08/11 10:33:18;;;;;;;2.90;2.70;;;;;;;22.47;98.60;97828.41;4993337;28;20249;-63
2021/08/11 10:35:45;;;;;;;3.00;2.80;;;;;;;22.44;98.48;97821.50;5000308;28;20297;-63
2021/08/11 10:38:12;;;;;;;2.83;2.63;;;;;;;22.41;98.56;97811.16;4997836;28;20226;-62
2021/08/11 10:40:41;;;;;;;2.70;2.50;;;;;;;22.45;98.65;97818.13;5002777;28;20223;-61
2021/08/11 10:43:08;;;;;;;2.40;2.30;;;;;;;22.43;98.47;97816.31;4984936;28;20199;-62
2021/08/11 10:45:34;;;;;;;3.00;2.50;;;;;;;22.48;98.86;97831.03;4986423;28;20231;-61
2021/08/11 10:48:01;;;;;;;3.63;2.70;;;;;;;22.48;98.36;97820.78;5002443;28;20208;-65
2021/08/11 10:50:44;;;;;;;3.00;2.70;;;;;;;22.48;98.42;97828.47;4987083;28;20707;-62
2021/08/11 10:53:11;;;;;;;2.57;2.37;;;;;;;22.43;98.31;97819.75;4993920;28;20349;-66
2021/08/11 10:55:42;;;;;;;2.60;2.40;;;;;;;22.42;98.35;97812.91;4983373;28;20230;-67
2021/08/11 10:58:09;;;;;;;2.70;2.50;;;;;;;22.49;98.43;97821.63;4987973;28;20241;-60
2021/08/11 11:00:36;;;;;;;2.73;2.53;;;;;;;22.49;98.41;97821.63;4997832;28;20242;-64
2021/08/11 11:03:03;;;;;;;3.07;2.80;;;;;;;22.41;98.41;97810.31;5000153;28;20209;-61
2021/08/11 11:05:33;;;;;;;2.90;2.67;;;;;;;22.50;98.36;97819.16;4984569;28;20567;-67
2021/08/11 11:08:16;;;;;;;3.17;2.90;;;;;;;22.49;98.42;97817.38;4999815;28;20222;-66
2021/08/11 11:10:46;;;;;;;3.20;2.73;;;;;;;22.50;98.43;97820.81;5003005;28;20229;-67
2021/08/11 11:13:33;;;;;;;2.70;2.50;;;;;;;22.48;98.46;97817.34;5004817;28;20268;-67
2021/08/11 11:16:01;;;;;;;2.60;2.40;;;;;;;22.47;98.56;97821.59;4996132;28;20752;-61
2021/08/11 11:18:28;;;;;;;2.80;2.60;;;;;;;22.41;98.49;97813.72;5007701;28;20234;-61
2021/08/11 11:20:58;;;;;;;2.70;2.50;;;;;;;22.44;98.43;97812.97;4983728;28;20266;-61
2021/08/11 11:23:38;;;;;;;3.03;2.63;;;;;;;22.44;98.59;97818.09;5007965;28;20289;-60
2021/08/11 11:26:09;;;;;;;2.87;2.67;;;;;;;22.42;98.67;97810.34;4996663;28;20218;-61
2021/08/11 11:28:54;;;;;;;3.03;2.83;;;;;;;22.41;98.78;97813.72;4999453;28;20198;-65
2021/08/11 11:31:33;;;;;;;3.97;2.80;;;;;;;22.41;98.97;97808.59;5004006;28;20314;-61
2021/08/11 11:34:18;;;;;;;2.40;2.20;;;;;;;22.40;98.99;97800.88;5001722;28;20445;-61
2021/08/11 11:36:54;;;;;;;2.50;2.30;;;;;;;22.40;98.91;97801.75;5002998;28;20652;-61
2021/08/11 11:39:44;;;;;;;2.70;2.50;;;;;;;22.40;98.80;97809.44;5002022;28;20281;-61
2021/08/11 11:42:22;;;;;;;2.80;2.60;;;;;;;22.41;98.98;97802.63;4993784;28;20199;-64